Time;durP1;ratioP1;P1;durP2;ratioP2;P2;SDS_P1;SDS_P2;PMS_P1;PMS_P2;Temp;Humidity;BMP_temperature;BMP_pressure;BME280_temperature;BME280_humidity;BME280_pressure;Samples;Min_cycle;Max_cycle;Signal;HPM_P1;HPM_P2
2024/03/14 00:00:22;;;;;;;;;;;24.30;45.00;;;;;;5076634;28;19919;-44
2024/03/14 00:02:48;;;;;;;;;;;24.30;45.00;;;;;;5070860;28;19917;-43
2024/03/14 00:05:14;;;;;;;;;;;24.30;45.30;;;;;;5069580;28;19916;-43
2024/03/14 00:07:41;;;;;;;;;;;24.30;45.30;;;;;;5080290;28;19908;-43
2024/03/14 00:10:07;;;;;;;;;;;24.30;45.30;;;;;;5065353;28;19912;-44
2024/03/14 00:12:33;;;;;;;;;;;24.30;45.30;;;;;;5064887;28;19913;-44
2024/03/14 00:14:59;;;;;;;;;;;24.30;45.30;;;;;;5066511;28;19908;-45
2024/03/14 00:17:25;;;;;;;;;;;24.20;45.20;;;;;;5075194;28;19915;-44
2024/03/14 00:19:51;;;;;;;;;;;24.20;45.30;;;;;;5074156;28;19918;-43
2024/03/14 00:22:21;;;;;;;;;;;24.20;45.30;;;;;;5070322;28;19964;-45
2024/03/14 00:24:47;;;;;;;;;;;24.20;45.30;;;;;;5067929;28;19909;-45
2024/03/14 00:27:17;;;;;;;;;;;24.20;45.30;;;;;;5067572;28;19943;-43
2024/03/14 00:29:42;;;;;;;;;;;24.10;45.20;;;;;;5074449;28;19912;-45
2024/03/14 00:32:08;;;;;;;;;;;24.10;45.30;;;;;;5070443;28;20009;-46
2024/03/14 00:34:36;;;;;;;;;;;24.10;45.20;;;;;;5071855;28;19915;-45
2024/03/14 00:37:02;;;;;;;;;;;24.10;45.20;;;;;;5071115;28;19951;-44
2024/03/14 00:39:28;;;;;;;;;;;24.10;45.10;;;;;;5064709;28;19916;-43
2024/03/14 00:41:54;;;;;;;;;;;24.00;45.10;;;;;;5064715;28;19999;-45
2024/03/14 00:44:20;;;;;;;;;;;24.00;45.00;;;;;;5064402;28;19917;-45
2024/03/14 00:46:46;;;;;;;;;;;24.00;45.10;;;;;;5064048;28;19982;-44
2024/03/14 00:49:12;;;;;;;;;;;24.00;45.20;;;;;;5067102;28;19913;-44
2024/03/14 00:51:38;;;;;;;;;;;24.00;45.20;;;;;;5068125;28;19916;-45
2024/03/14 00:54:04;;;;;;;;;;;24.00;45.20;;;;;;5077298;28;19934;-46
2024/03/14 00:56:33;;;;;;;;;;;23.90;45.20;;;;;;5064076;28;19919;-46
2024/03/14 00:58:58;;;;;;;;;;;23.90;45.40;;;;;;5073454;28;19916;-47
2024/03/14 01:01:25;;;;;;;;;;;23.90;45.30;;;;;;5087205;28;20046;-46
2024/03/14 01:03:52;;;;;;;;;;;23.90;45.40;;;;;;5079582;28;19913;-46
2024/03/14 01:06:19;;;;;;;;;;;23.80;45.20;;;;;;5079105;28;19947;-43
2024/03/14 01:08:53;;;;;;;;;;;23.80;45.30;;;;;;5078307;28;19979;-49
2024/03/14 01:11:20;;;;;;;;;;;23.80;45.10;;;;;;5075396;28;19915;-46
2024/03/14 01:13:46;;;;;;;;;;;23.80;45.00;;;;;;5067900;28;19913;-46
2024/03/14 01:16:15;;;;;;;;;;;23.80;45.00;;;;;;5070536;28;20311;-44
2024/03/14 01:18:42;;;;;;;;;;;23.70;45.00;;;;;;5064647;28;19916;-43
2024/03/14 01:21:10;;;;;;;;;;;23.70;45.00;;;;;;5078747;28;20052;-45
2024/03/14 01:23:38;;;;;;;;;;;23.70;45.10;;;;;;5071186;28;19917;-44
2024/03/14 01:26:04;;;;;;;;;;;23.70;45.10;;;;;;5076899;28;19952;-44
2024/03/14 01:28:35;;;;;;;;;;;23.70;45.10;;;;;;5081290;28;19916;-45
2024/03/14 01:31:02;;;;;;;;;;;23.60;45.00;;;;;;5079037;28;19927;-48
2024/03/14 01:33:31;;;;;;;;;;;23.60;45.10;;;;;;5070293;28;19917;-45
2024/03/14 01:36:00;;;;;;;;;;;23.60;45.00;;;;;;5070803;28;19922;-43
2024/03/14 01:38:27;;;;;;;;;;;23.60;45.10;;;;;;5074101;28;19923;-43
2024/03/14 01:40:53;;;;;;;;;;;23.50;45.10;;;;;;5080126;28;19916;-43
2024/03/14 01:43:19;;;;;;;;;;;23.50;45.00;;;;;;5073361;28;20442;-44
2024/03/14 01:45:53;;;;;;;;;;;23.50;45.10;;;;;;5079756;28;19921;-44
2024/03/14 01:48:21;;;;;;;;;;;23.50;45.10;;;;;;5074868;28;20003;-44
2024/03/14 01:50:47;;;;;;;;;;;23.50;45.20;;;;;;5080690;28;19934;-43
2024/03/14 01:53:14;;;;;;;;;;;23.40;45.20;;;;;;5082579;28;19912;-45
2024/03/14 01:55:42;;;;;;;;;;;23.40;45.20;;;;;;5074273;28;19916;-44
2024/03/14 01:58:09;;;;;;;;;;;23.40;45.20;;;;;;5071147;28;20019;-44
2024/03/14 02:00:37;;;;;;;;;;;23.30;45.20;;;;;;5075596;28;19916;-45
2024/03/14 02:03:04;;;;;;;;;;;23.30;45.20;;;;;;5070320;28;19965;-44
2024/03/14 02:05:39;;;;;;;;;;;23.30;45.20;;;;;;5073483;28;19924;-45
2024/03/14 02:08:07;;;;;;;;;;;23.30;45.30;;;;;;5064550;28;19912;-43
2024/03/14 02:10:35;;;;;;;;;;;23.20;45.30;;;;;;5064774;28;19913;-44
2024/03/14 02:13:01;;;;;;;;;;;23.20;45.30;;;;;;5070655;28;19913;-45
2024/03/14 02:15:29;;;;;;;;;;;23.20;45.30;;;;;;5074004;28;19990;-45
2024/03/14 02:17:56;;;;;;;;;;;23.20;45.40;;;;;;5079782;28;19919;-43
2024/03/14 02:20:23;;;;;;;;;;;23.10;45.30;;;;;;5080612;28;19912;-43
2024/03/14 02:22:51;;;;;;;;;;;23.10;45.40;;;;;;5079073;28;19976;-46
2024/03/14 02:25:19;;;;;;;;;;;23.10;45.30;;;;;;5072845;28;19931;-44
2024/03/14 02:27:46;;;;;;;;;;;23.10;45.50;;;;;;5080368;28;19912;-44
2024/03/14 02:30:12;;;;;;;;;;;23.10;45.80;;;;;;5080255;28;19912;-45
2024/03/14 02:32:41;;;;;;;;;;;23.10;45.90;;;;;;5078677;28;19923;-43
2024/03/14 02:35:07;;;;;;;;;;;23.10;46.00;;;;;;5072795;28;19995;-47
2024/03/14 02:37:33;;;;;;;;;;;23.10;46.00;;;;;;5078776;28;20374;-46
2024/03/14 02:40:00;;;;;;;;;;;23.00;45.90;;;;;;5072459;28;19908;-44
2024/03/14 02:42:26;;;;;;;;;;;23.00;45.90;;;;;;5083614;28;20352;-46
2024/03/14 02:44:54;;;;;;;;;;;23.00;45.90;;;;;;5083037;28;19913;-43
2024/03/14 02:47:20;;;;;;;;;;;23.00;45.90;;;;;;5084619;28;20631;-46
2024/03/14 02:49:47;;;;;;;;;;;22.90;45.90;;;;;;5076451;28;19908;-45
2024/03/14 02:52:15;;;;;;;;;;;23.00;46.20;;;;;;5083816;28;20007;-47
2024/03/14 02:54:42;;;;;;;;;;;23.00;46.30;;;;;;5070584;28;19909;-44
2024/03/14 02:57:11;;;;;;;;;;;23.00;46.40;;;;;;5069873;28;19916;-44
2024/03/14 02:59:38;;;;;;;;;;;23.00;46.30;;;;;;5070426;28;19913;-43
2024/03/14 03:02:10;;;;;;;;;;;22.90;46.30;;;;;;5073208;28;19975;-45
2024/03/14 03:04:39;;;;;;;;;;;22.90;46.20;;;;;;5076902;28;19983;-43
2024/03/14 03:07:05;;;;;;;;;;;22.90;46.20;;;;;;5067748;28;19924;-46
2024/03/14 03:09:31;;;;;;;;;;;22.90;46.20;;;;;;5066215;28;20281;-48
2024/03/14 03:11:57;;;;;;;;;;;22.80;46.20;;;;;;5068030;28;19913;-44
2024/03/14 03:14:27;;;;;;;;;;;22.90;46.50;;;;;;5066290;28;19913;-45
2024/03/14 03:16:53;;;;;;;;;;;22.90;46.60;;;;;;5066848;28;19912;-47
2024/03/14 03:19:19;;;;;;;;;;;22.90;46.60;;;;;;5066139;28;20003;-48
2024/03/14 03:21:45;;;;;;;;;;;22.90;46.50;;;;;;5073661;28;20003;-43
2024/03/14 03:24:12;;;;;;;;;;;22.90;46.50;;;;;;5073081;28;19908;-44
2024/03/14 03:26:40;;;;;;;;;;;22.90;46.50;;;;;;5081577;28;20002;-46
2024/03/14 03:29:07;;;;;;;;;;;22.80;46.50;;;;;;5073598;28;19912;-47
2024/03/14 03:31:34;;;;;;;;;;;22.80;46.50;;;;;;5073500;28;19943;-47
2024/03/14 03:34:01;;;;;;;;;;;22.80;46.70;;;;;;5074420;28;19947;-45
2024/03/14 03:36:29;;;;;;;;;;;22.80;46.80;;;;;;5076677;28;19920;-48
2024/03/14 03:38:56;;;;;;;;;;;22.90;46.80;;;;;;5075659;28;19912;-48
2024/03/14 03:41:23;;;;;;;;;;;22.80;46.70;;;;;;5076484;28;20704;-47
2024/03/14 03:43:52;;;;;;;;;;;22.80;46.70;;;;;;5068136;28;19917;-48
2024/03/14 03:46:19;;;;;;;;;;;22.80;46.70;;;;;;5072190;28;19948;-50
2024/03/14 03:48:45;;;;;;;;;;;22.80;46.70;;;;;;5073026;28;19980;-48
2024/03/14 03:51:14;;;;;;;;;;;22.70;46.60;;;;;;5076454;28;19912;-47
2024/03/14 03:53:40;;;;;;;;;;;22.70;46.80;;;;;;5075731;28;19913;-46
2024/03/14 03:56:07;;;;;;;;;;;22.80;47.00;;;;;;5073641;28;19920;-47
2024/03/14 03:58:33;;;;;;;;;;;22.80;47.00;;;;;;5072703;28;19912;-50
2024/03/14 04:01:19;;;;;;;;;;;22.80;47.00;;;;;;5074056;28;19916;-47
2024/03/14 04:03:45;;;;;;;;;;;22.80;46.90;;;;;;5074270;28;19912;-46
2024/03/14 04:06:15;;;;;;;;;;;22.70;46.90;;;;;;5074774;28;19920;-48
2024/03/14 04:08:41;;;;;;;;;;;22.70;46.90;;;;;;5072691;28;19909;-49
2024/03/14 04:11:07;;;;;;;;;;;22.70;46.90;;;;;;5075351;28;19909;-46
2024/03/14 04:13:33;;;;;;;;;;;22.70;46.90;;;;;;5075367;28;19912;-44
2024/03/14 04:16:00;;;;;;;;;;;22.70;47.10;;;;;;5080896;28;19942;-44
2024/03/14 04:18:29;;;;;;;;;;;22.70;47.20;;;;;;5075611;28;19916;-44
2024/03/14 04:20:56;;;;;;;;;;;22.70;47.10;;;;;;5067066;28;19944;-43
2024/03/14 04:23:24;;;;;;;;;;;22.70;47.10;;;;;;5074640;28;19935;-43
2024/03/14 04:25:50;;;;;;;;;;;22.70;47.10;;;;;;5073451;28;19924;-43
2024/03/14 04:28:18;;;;;;;;;;;22.70;47.10;;;;;;5071332;28;19913;-42
2024/03/14 04:30:45;;;;;;;;;;;22.60;47.00;;;;;;5078678;28;19919;-45
2024/03/14 04:33:12;;;;;;;;;;;22.60;47.10;;;;;;5070545;28;19955;-44
2024/03/14 04:35:38;;;;;;;;;;;22.70;47.30;;;;;;5071269;28;19916;-44
2024/03/14 04:38:04;;;;;;;;;;;22.70;47.30;;;;;;5068971;28;19915;-45
2024/03/14 04:40:31;;;;;;;;;;;22.70;47.20;;;;;;5074931;28;19916;-43
2024/03/14 04:42:57;;;;;;;;;;;22.70;47.20;;;;;;5078842;28;20442;-43
2024/03/14 04:45:24;;;;;;;;;;;22.60;47.20;;;;;;5069670;28;19912;-46
2024/03/14 04:47:50;;;;;;;;;;;22.60;47.20;;;;;;5082014;28;19930;-45
2024/03/14 04:50:18;;;;;;;;;;;22.60;47.20;;;;;;5078065;28;19908;-44
2024/03/14 04:52:44;;;;;;;;;;;22.60;47.40;;;;;;5072468;28;19913;-45
2024/03/14 04:55:10;;;;;;;;;;;22.70;47.40;;;;;;5079388;28;19987;-44
2024/03/14 04:57:37;;;;;;;;;;;22.70;47.40;;;;;;5065111;28;19983;-43
2024/03/14 05:00:11;;;;;;;;;;;22.70;47.30;;;;;;5079956;28;19956;-44
2024/03/14 05:02:38;;;;;;;;;;;22.60;47.30;;;;;;5078850;28;19919;-44
2024/03/14 05:05:05;;;;;;;;;;;22.60;47.30;;;;;;5074793;28;19955;-45
2024/03/14 05:07:30;;;;;;;;;;;22.60;47.30;;;;;;5075272;28;19920;-45
2024/03/14 05:09:56;;;;;;;;;;;22.50;47.40;;;;;;5081201;28;19912;-47
2024/03/14 05:12:22;;;;;;;;;;;22.60;47.50;;;;;;5068346;28;19970;-44
2024/03/14 05:14:49;;;;;;;;;;;22.60;47.40;;;;;;5075395;28;19916;-44
2024/03/14 05:17:15;;;;;;;;;;;22.60;47.40;;;;;;5067491;28;19918;-44
2024/03/14 05:19:41;;;;;;;;;;;22.60;47.40;;;;;;5074650;28;19915;-45
2024/03/14 05:22:06;;;;;;;;;;;22.60;47.40;;;;;;5082785;28;19976;-42
2024/03/14 05:24:32;;;;;;;;;;;22.50;47.40;;;;;;5084792;28;20391;-43
2024/03/14 05:27:00;;;;;;;;;;;22.50;47.50;;;;;;5079509;28;20045;-47
2024/03/14 05:29:26;;;;;;;;;;;22.60;47.60;;;;;;5068488;28;19909;-45
2024/03/14 05:31:52;;;;;;;;;;;22.60;47.60;;;;;;5073442;28;19912;-46
2024/03/14 05:34:18;;;;;;;;;;;22.60;47.60;;;;;;5081819;28;19912;-44
2024/03/14 05:36:44;;;;;;;;;;;22.60;47.50;;;;;;5068219;28;19908;-46
2024/03/14 05:39:10;;;;;;;;;;;22.60;47.50;;;;;;5081033;28;19912;-43
2024/03/14 05:41:35;;;;;;;;;;;22.50;47.40;;;;;;5081892;28;19919;-44
2024/03/14 05:44:01;;;;;;;;;;;22.50;47.40;;;;;;5072809;28;19927;-45
2024/03/14 05:46:27;;;;;;;;;;;22.50;47.60;;;;;;5071375;28;19927;-45
2024/03/14 05:48:53;;;;;;;;;;;22.60;47.60;;;;;;5073675;28;19916;-44
2024/03/14 05:51:20;;;;;;;;;;;22.60;47.60;;;;;;5072885;28;19916;-44
2024/03/14 05:53:46;;;;;;;;;;;22.60;47.60;;;;;;5069788;28;19919;-46
2024/03/14 05:56:12;;;;;;;;;;;22.60;47.60;;;;;;5072059;28;19952;-44
2024/03/14 05:58:37;;;;;;;;;;;22.50;47.50;;;;;;5071551;28;19959;-46
2024/03/14 06:01:06;;;;;;;;;;;22.50;47.50;;;;;;5073688;28;19912;-44
2024/03/14 06:03:32;;;;;;;;;;;22.50;47.60;;;;;;5068190;28;19908;-44
2024/03/14 06:05:58;;;;;;;;;;;22.50;47.70;;;;;;5078117;28;19931;-46
2024/03/14 06:08:24;;;;;;;;;;;22.50;47.70;;;;;;5076752;28;19909;-43
2024/03/14 06:10:50;;;;;;;;;;;22.60;47.70;;;;;;5075716;28;19952;-44
2024/03/14 06:13:17;;;;;;;;;;;22.50;47.60;;;;;;5075977;28;20356;-45
2024/03/14 06:15:43;;;;;;;;;;;22.50;47.60;;;;;;5073030;28;19912;-46
2024/03/14 06:18:09;;;;;;;;;;;22.50;47.60;;;;;;5073643;28;19919;-45
2024/03/14 06:20:35;;;;;;;;;;;22.50;47.70;;;;;;5076590;28;19908;-45
2024/03/14 06:23:01;;;;;;;;;;;22.50;47.80;;;;;;5072858;28;19935;-45
2024/03/14 06:25:27;;;;;;;;;;;22.60;47.80;;;;;;5076143;28;19934;-46
2024/03/14 06:27:52;;;;;;;;;;;22.60;47.80;;;;;;5077793;28;19916;-47
2024/03/14 06:30:19;;;;;;;;;;;22.50;47.70;;;;;;5080487;28;19924;-44
2024/03/14 06:32:49;;;;;;;;;;;22.50;47.70;;;;;;5077203;28;19975;-44
2024/03/14 06:35:15;;;;;;;;;;;22.50;47.70;;;;;;5076964;28;20250;-44
2024/03/14 06:37:41;;;;;;;;;;;22.40;47.60;;;;;;5079946;28;19979;-47
2024/03/14 06:40:11;;;;;;;;;;;22.50;47.80;;;;;;5078602;28;19909;-46
2024/03/14 06:42:38;;;;;;;;;;;22.50;47.80;;;;;;5075349;28;19925;-46
2024/03/14 06:45:05;;;;;;;;;;;22.50;47.80;;;;;;5074466;28;19936;-44
2024/03/14 06:47:30;;;;;;;;;;;22.50;47.80;;;;;;5076140;28;19959;-45
2024/03/14 06:49:58;;;;;;;;;;;22.50;47.70;;;;;;5074428;28;19915;-44
2024/03/14 06:52:24;;;;;;;;;;;22.40;47.70;;;;;;5077916;28;19940;-43
2024/03/14 06:54:50;;;;;;;;;;;22.40;47.80;;;;;;5077054;28;19916;-47
2024/03/14 06:57:16;;;;;;;;;;;22.40;47.90;;;;;;5077982;28;19919;-45
2024/03/14 06:59:44;;;;;;;;;;;22.50;47.90;;;;;;5077076;28;19912;-45
2024/03/14 07:02:10;;;;;;;;;;;22.50;47.90;;;;;;5072470;28;19976;-44
2024/03/14 07:04:37;;;;;;;;;;;22.50;47.90;;;;;;5082376;28;20906;-44
2024/03/14 07:07:03;;;;;;;;;;;22.40;47.80;;;;;;5075596;28;19924;-45
2024/03/14 07:09:30;;;;;;;;;;;22.40;47.80;;;;;;5076158;28;19924;-45
2024/03/14 07:11:56;;;;;;;;;;;22.40;47.80;;;;;;5078581;28;19912;-45
2024/03/14 07:14:23;;;;;;;;;;;22.40;47.90;;;;;;5079391;28;19912;-46
2024/03/14 07:16:49;;;;;;;;;;;22.50;48.00;;;;;;5070912;28;19923;-45
2024/03/14 07:19:21;;;;;;;;;;;22.50;48.00;;;;;;5076574;28;19955;-44
2024/03/14 07:21:49;;;;;;;;;;;22.50;48.00;;;;;;5072874;28;19913;-45
2024/03/14 07:24:18;;;;;;;;;;;22.40;47.90;;;;;;5080977;28;19920;-44
2024/03/14 07:26:44;;;;;;;;;;;22.40;47.90;;;;;;5071761;28;19960;-45
2024/03/14 07:29:10;;;;;;;;;;;22.40;47.90;;;;;;5078267;28;19990;-46
2024/03/14 07:31:36;;;;;;;;;;;22.40;48.00;;;;;;5077391;28;19913;-46
2024/03/14 07:34:06;;;;;;;;;;;22.40;48.00;;;;;;5074190;28;19912;-48
2024/03/14 07:36:36;;;;;;;;;;;22.40;48.00;;;;;;5070283;28;19912;-49
2024/03/14 07:39:02;;;;;;;;;;;22.40;48.00;;;;;;5071137;28;19942;-44
2024/03/14 07:41:27;;;;;;;;;;;22.40;47.90;;;;;;5071724;28;20722;-45
2024/03/14 07:43:53;;;;;;;;;;;22.40;47.90;;;;;;5072005;28;19964;-44
2024/03/14 07:46:19;;;;;;;;;;;22.40;47.90;;;;;;5074455;28;19942;-46
2024/03/14 07:48:49;;;;;;;;;;;22.30;48.00;;;;;;5077039;28;19917;-44
2024/03/14 07:51:15;;;;;;;;;;;22.40;48.10;;;;;;5075515;28;19912;-46
2024/03/14 07:53:42;;;;;;;;;;;22.40;48.00;;;;;;5085551;28;19915;-45
2024/03/14 07:56:09;;;;;;;;;;;22.40;48.00;;;;;;5082340;28;19920;-44
2024/03/14 07:58:38;;;;;;;;;;;22.40;48.00;;;;;;5083302;28;19908;-47
2024/03/14 08:01:09;;;;;;;;;;;22.40;48.00;;;;;;5077905;28;19912;-44
2024/03/14 08:03:42;;;;;;;;;;;22.30;47.90;;;;;;5069084;28;20377;-45
2024/03/14 08:06:08;;;;;;;;;;;22.30;48.00;;;;;;5081517;28;19920;-45
2024/03/14 08:08:37;;;;;;;;;;;22.40;48.10;;;;;;5076748;28;19913;-45
2024/03/14 08:11:09;;;;;;;;;;;22.40;48.10;;;;;;5066510;28;19916;-44
2024/03/14 08:13:35;;;;;;;;;;;22.40;48.00;;;;;;5076277;28;20294;-50
2024/03/14 08:18:56;;;;;;;;;;;22.30;48.00;;;;;;5083985;28;19915;-45
2024/03/14 08:21:22;;;;;;;;;;;22.30;48.00;;;;;;5075801;28;19935;-46
2024/03/14 08:23:49;;;;;;;;;;;22.30;48.10;;;;;;5081451;28;19966;-45
2024/03/14 08:26:17;;;;;;;;;;;22.40;48.10;;;;;;5081444;28;20035;-44
2024/03/14 08:28:43;;;;;;;;;;;22.40;48.10;;;;;;5075174;28;19938;-46
2024/03/14 08:31:15;;;;;;;;;;;22.40;48.60;;;;;;5079837;28;19924;-47
2024/03/14 08:33:44;;;;;;;;;;;22.30;48.00;;;;;;5077512;28;19908;-48
2024/03/14 08:36:10;;;;;;;;;;;22.30;48.10;;;;;;5081746;28;19935;-44
2024/03/14 08:38:35;;;;;;;;;;;22.30;48.10;;;;;;5082572;28;19912;-47
2024/03/14 08:41:03;;;;;;;;;;;22.30;48.20;;;;;;5084927;28;19942;-44
2024/03/14 08:43:30;;;;;;;;;;;22.40;48.20;;;;;;5076858;28;20434;-44
2024/03/14 08:45:56;;;;;;;;;;;22.40;48.20;;;;;;5080928;28;19956;-46
2024/03/14 08:48:22;;;;;;;;;;;22.40;48.10;;;;;;5078154;28;19919;-46
2024/03/14 08:50:49;;;;;;;;;;;22.30;48.10;;;;;;5078272;28;19916;-46
2024/03/14 08:53:15;;;;;;;;;;;22.30;48.10;;;;;;5076590;28;19958;-44
2024/03/14 08:56:07;;;;;;;;;;;22.30;48.20;;;;;;5071151;28;19905;-44
2024/03/14 08:58:29;;;;;;;;;;;22.30;48.20;;;;;;5082057;28;19913;-44
2024/03/14 09:00:59;;;;;;;;;;;22.40;48.20;;;;;;5080898;28;20011;-46
2024/03/14 09:03:25;;;;;;;;;;;22.40;48.20;;;;;;5079881;28;19919;-44
2024/03/14 09:05:51;;;;;;;;;;;22.30;48.10;;;;;;5080568;28;20381;-43
2024/03/14 09:08:21;;;;;;;;;;;22.30;48.10;;;;;;5078405;28;19975;-46
2024/03/14 09:10:47;;;;;;;;;;;22.30;48.10;;;;;;5078180;28;19909;-46
2024/03/14 09:13:14;;;;;;;;;;;22.30;48.30;;;;;;5081310;28;19962;-45
2024/03/14 09:15:41;;;;;;;;;;;22.30;48.20;;;;;;5081377;28;19912;-44
2024/03/14 09:18:08;;;;;;;;;;;22.40;48.20;;;;;;5080681;28;19955;-44
2024/03/14 09:20:34;;;;;;;;;;;22.30;48.20;;;;;;5081682;28;19913;-46
2024/03/14 09:22:59;;;;;;;;;;;22.30;48.20;;;;;;5066668;28;19920;-45
2024/03/14 09:25:28;;;;;;;;;;;22.30;48.20;;;;;;5081027;28;20403;-45
2024/03/14 09:27:54;;;;;;;;;;;22.30;48.20;;;;;;5080693;28;19919;-45
2024/03/14 09:30:21;;;;;;;;;;;22.30;48.30;;;;;;5081797;28;19909;-46
2024/03/14 09:32:47;;;;;;;;;;;22.30;48.30;;;;;;5079936;28;19912;-45
2024/03/14 09:35:15;;;;;;;;;;;22.40;48.30;;;;;;5083631;28;19913;-47
2024/03/14 09:37:43;;;;;;;;;;;22.30;48.20;;;;;;5070897;28;19942;-46
2024/03/14 09:40:15;;;;;;;;;;;22.30;48.20;;;;;;5080880;28;19917;-44
2024/03/14 09:42:41;;;;;;;;;;;22.30;48.20;;;;;;5075013;28;19935;-46
2024/03/14 09:45:12;;;;;;;;;;;22.30;48.30;;;;;;5079783;28;19915;-44
2024/03/14 09:47:38;;;;;;;;;;;22.30;48.30;;;;;;5074173;28;19984;-46
2024/03/14 09:50:05;;;;;;;;;;;22.40;48.30;;;;;;5065776;28;19912;-45
2024/03/14 09:52:33;;;;;;;;;;;22.30;48.30;;;;;;5072473;28;19915;-45
2024/03/14 09:54:59;;;;;;;;;;;22.30;48.20;;;;;;5062850;28;19912;-44
2024/03/14 09:57:25;;;;;;;;;;;22.30;48.20;;;;;;5075863;28;19908;-46
2024/03/14 09:59:52;;;;;;;;;;;22.20;48.20;;;;;;5076683;28;19936;-45
2024/03/14 10:02:18;;;;;;;;;;;22.30;48.40;;;;;;5074479;28;19919;-46
2024/03/14 10:04:44;;;;;;;;;;;22.30;48.30;;;;;;5061959;28;19940;-44
2024/03/14 10:07:10;;;;;;;;;;;22.30;48.30;;;;;;5079706;28;19943;-44
2024/03/14 10:09:36;;;;;;;;;;;22.30;48.30;;;;;;5067604;28;19912;-44
2024/03/14 10:12:02;;;;;;;;;;;22.30;48.30;;;;;;5072355;28;19908;-46
2024/03/14 10:14:32;;;;;;;;;;;22.30;48.30;;;;;;5071858;28;20015;-45
2024/03/14 10:16:58;;;;;;;;;;;22.20;48.30;;;;;;5065516;28;19913;-47
2024/03/14 10:19:29;;;;;;;;;;;22.20;48.40;;;;;;5065053;28;19913;-45
2024/03/14 10:21:54;;;;;;;;;;;22.30;48.40;;;;;;5067663;28;19920;-46
2024/03/14 10:24:22;;;;;;;;;;;22.30;48.40;;;;;;5070945;28;19912;-45
2024/03/14 10:26:48;;;;;;;;;;;22.30;48.30;;;;;;5075196;28;19960;-46
2024/03/14 10:29:14;;;;;;;;;;;22.30;48.30;;;;;;5076664;28;19912;-47
2024/03/14 10:31:43;;;;;;;;;;;22.30;48.30;;;;;;5065195;28;19913;-45
2024/03/14 10:34:09;;;;;;;;;;;22.20;48.30;;;;;;5068988;28;19939;-47
2024/03/14 10:36:39;;;;;;;;;;;22.20;48.40;;;;;;5062979;28;20259;-45
2024/03/14 10:39:05;;;;;;;;;;;22.30;48.40;;;;;;5063843;28;19913;-44
2024/03/14 10:41:32;;;;;;;;;;;22.30;48.40;;;;;;5062038;28;20381;-46
2024/03/14 10:43:58;;;;;;;;;;;22.30;48.40;;;;;;5070580;28;20132;-45
2024/03/14 10:46:24;;;;;;;;;;;22.30;48.30;;;;;;5061666;28;19939;-44
2024/03/14 10:48:50;;;;;;;;;;;22.20;48.30;;;;;;5062133;28;19940;-47
2024/03/14 10:51:16;;;;;;;;;;;22.20;48.40;;;;;;5067504;28;20369;-46
2024/03/14 10:53:42;;;;;;;;;;;22.30;48.40;;;;;;5071897;28;19936;-44
2024/03/14 10:56:11;;;;;;;;;;;22.30;48.40;;;;;;5070260;28;19912;-46
2024/03/14 10:58:36;;;;;;;;;;;22.30;48.40;;;;;;5075754;28;19912;-47
2024/03/14 11:01:04;;;;;;;;;;;22.30;48.40;;;;;;5065576;28;19913;-46
2024/03/14 11:03:33;;;;;;;;;;;22.20;48.90;;;;;;5078021;28;20273;-44
2024/03/14 11:05:59;;;;;;;;;;;22.20;48.40;;;;;;5072870;28;19951;-45
2024/03/14 11:08:28;;;;;;;;;;;22.20;48.40;;;;;;5074247;28;19909;-45
2024/03/14 11:10:54;;;;;;;;;;;22.30;48.50;;;;;;5075700;28;19994;-44
2024/03/14 11:13:23;;;;;;;;;;;22.30;48.40;;;;;;5076206;28;19917;-45
2024/03/14 11:15:49;;;;;;;;;;;22.30;48.40;;;;;;5077083;28;19923;-46
2024/03/14 11:18:16;;;;;;;;;;;22.20;48.30;;;;;;5073216;28;20697;-45
2024/03/14 11:20:50;;;;;;;;;;;22.20;48.40;;;;;;5074493;28;19913;-44
2024/03/14 11:23:18;;;;;;;;;;;22.20;48.40;;;;;;5069278;28;19979;-44
2024/03/14 11:25:46;;;;;;;;;;;22.20;48.50;;;;;;5075172;28;19935;-46
2024/03/14 11:28:12;;;;;;;;;;;22.30;48.50;;;;;;5068400;28;19912;-45
2024/03/14 11:30:38;;;;;;;;;;;22.30;48.50;;;;;;5069928;28;19912;-46
2024/03/14 11:33:07;;;;;;;;;;;22.30;48.40;;;;;;5068420;28;19943;-45
2024/03/14 11:35:37;;;;;;;;;;;22.20;48.40;;;;;;5070192;28;20329;-44
2024/03/14 11:38:18;;;;;;;;;;;22.20;48.40;;;;;;5065563;28;19923;-45
2024/03/14 11:40:47;;;;;;;;;;;22.20;48.50;;;;;;5072451;28;19912;-47
2024/03/14 11:43:17;;;;;;;;;;;22.20;48.50;;;;;;5080213;28;19931;-45
2024/03/14 11:45:43;;;;;;;;;;;22.30;48.50;;;;;;5073021;28;19916;-45
2024/03/14 11:48:15;;;;;;;;;;;22.30;48.50;;;;;;5073257;28;19917;-44
2024/03/14 11:50:42;;;;;;;;;;;22.20;48.40;;;;;;5076379;28;19932;-46
2024/03/14 11:53:11;;;;;;;;;;;22.20;48.40;;;;;;5079805;28;19985;-46
2024/03/14 11:55:38;;;;;;;;;;;22.20;48.50;;;;;;5065065;28;19915;-45
2024/03/14 11:58:14;;;;;;;;;;;22.20;48.50;;;;;;5072909;28;19919;-47
2024/03/14 12:00:40;;;;;;;;;;;22.20;48.50;;;;;;5071694;28;19912;-45
2024/03/14 12:03:07;;;;;;;;;;;22.20;48.50;;;;;;5066650;28;19919;-45
2024/03/14 12:05:38;;;;;;;;;;;22.20;48.50;;;;;;5064928;28;19913;-46
2024/03/14 12:08:04;;;;;;;;;;;22.20;48.40;;;;;;5073097;28;19971;-49
2024/03/14 12:10:30;;;;;;;;;;;22.20;48.50;;;;;;5070259;28;19948;-45
2024/03/14 12:12:59;;;;;;;;;;;22.10;48.50;;;;;;5073630;28;19909;-44
2024/03/14 12:15:25;;;;;;;;;;;22.20;48.60;;;;;;5069093;28;19999;-44
2024/03/14 12:17:57;;;;;;;;;;;22.20;48.60;;;;;;5073480;28;19959;-46
2024/03/14 12:20:28;;;;;;;;;;;22.20;48.50;;;;;;5071493;28;19975;-47
2024/03/14 12:22:57;;;;;;;;;;;22.20;48.50;;;;;;5066207;28;19919;-45
2024/03/14 12:25:24;;;;;;;;;;;22.20;48.50;;;;;;5064384;28;19912;-47
2024/03/14 12:27:50;;;;;;;;;;;22.10;48.40;;;;;;5064090;28;19913;-47
2024/03/14 12:30:16;;;;;;;;;;;22.10;48.50;;;;;;5062394;28;19976;-45
2024/03/14 12:32:43;;;;;;;;;;;22.20;48.60;;;;;;5065544;28;19919;-45
2024/03/14 12:35:13;;;;;;;;;;;22.20;48.50;;;;;;5074949;28;19916;-45
2024/03/14 12:37:42;;;;;;;;;;;22.20;48.50;;;;;;5075243;28;19917;-46
2024/03/14 12:40:11;;;;;;;;;;;22.20;48.50;;;;;;5064251;28;19913;-47
2024/03/14 12:42:43;;;;;;;;;;;22.20;48.50;;;;;;5063906;28;19924;-46
2024/03/14 12:45:09;;;;;;;;;;;22.10;48.50;;;;;;5072152;28;19924;-46
2024/03/14 12:47:35;;;;;;;;;;;22.10;48.60;;;;;;5062446;28;19917;-46
2024/03/14 12:50:01;;;;;;;;;;;22.20;48.70;;;;;;5069332;28;19913;-47
2024/03/14 12:52:27;;;;;;;;;;;22.20;48.60;;;;;;5069532;28;19919;-44
2024/03/14 12:54:53;;;;;;;;;;;22.20;48.60;;;;;;5073473;28;19913;-45
2024/03/14 12:57:21;;;;;;;;;;;22.20;48.50;;;;;;5071031;28;19913;-45
2024/03/14 12:59:47;;;;;;;;;;;22.20;48.50;;;;;;5064900;28;19909;-46
2024/03/14 13:02:18;;;;;;;;;;;22.10;48.50;;;;;;5075104;28;19951;-42
2024/03/14 13:04:45;;;;;;;;;;;22.20;48.60;;;;;;5074133;28;19943;-44
2024/03/14 13:07:18;;;;;;;;;;;22.20;48.60;;;;;;5078193;28;19925;-44
2024/03/14 13:09:45;;;;;;;;;;;22.20;48.50;;;;;;5061885;28;20429;-47
2024/03/14 13:12:22;;;;;;;;;;;22.20;48.50;;;;;;5070852;28;19920;-43
2024/03/14 13:15:17;;;;;;;;;;;22.20;48.50;;;;;;5070460;28;19912;-44
2024/03/14 13:17:46;;;;;;;;;;;22.10;48.50;;;;;;5063275;28;19912;-45
2024/03/14 13:20:13;;;;;;;;;;;22.20;48.60;;;;;;5071226;28;19912;-44
2024/03/14 13:22:39;;;;;;;;;;;22.30;48.60;;;;;;5064034;28;20003;-44
2024/03/14 13:25:07;;;;;;;;;;;22.30;48.60;;;;;;5069959;28;19923;-47
2024/03/14 13:27:33;;;;;;;;;;;22.30;48.60;;;;;;5070122;28;19941;-49
2024/03/14 13:30:05;;;;;;;;;;;22.20;48.60;;;;;;5073873;28;19917;-44
2024/03/14 13:32:31;;;;;;;;;;;22.20;48.50;;;;;;5068217;28;19912;-45
2024/03/14 13:34:59;;;;;;;;;;;22.20;48.60;;;;;;5071939;28;19908;-46
2024/03/14 13:37:26;;;;;;;;;;;22.20;48.70;;;;;;5082414;28;19931;-45
2024/03/14 13:39:52;;;;;;;;;;;22.30;48.70;;;;;;5069665;28;19943;-47
2024/03/14 13:42:18;;;;;;;;;;;22.30;48.70;;;;;;5074453;28;19908;-42
2024/03/14 13:44:46;;;;;;;;;;;22.30;48.70;;;;;;5075348;28;19913;-45
2024/03/14 13:47:20;;;;;;;;;;;22.30;48.60;;;;;;5072894;28;19994;-45
2024/03/14 13:49:47;;;;;;;;;;;22.20;48.60;;;;;;5072643;28;19934;-46
2024/03/14 13:52:14;;;;;;;;;;;22.30;48.70;;;;;;5070036;28;19912;-46
2024/03/14 13:54:40;;;;;;;;;;;22.30;48.70;;;;;;5068764;28;19913;-45
2024/03/14 13:57:09;;;;;;;;;;;22.30;48.70;;;;;;5075809;28;19912;-44
2024/03/14 13:59:41;;;;;;;;;;;22.30;48.80;;;;;;5072715;28;19956;-43
2024/03/14 14:02:11;;;;;;;;;;;22.30;48.70;;;;;;5067940;28;19916;-43
2024/03/14 14:04:40;;;;;;;;;;;22.30;48.70;;;;;;5076715;28;19912;-43
2024/03/14 14:07:06;;;;;;;;;;;22.30;48.70;;;;;;5074991;28;19920;-47
2024/03/14 14:09:36;;;;;;;;;;;22.30;48.80;;;;;;5077001;28;19976;-48
2024/03/14 14:12:04;;;;;;;;;;;22.40;48.80;;;;;;5072164;28;19935;-44
2024/03/14 14:14:31;;;;;;;;;;;22.40;48.80;;;;;;5070263;28;19975;-43
2024/03/14 14:16:58;;;;;;;;;;;22.40;48.80;;;;;;5074429;28;19913;-44
2024/03/14 14:19:24;;;;;;;;;;;22.40;48.80;;;;;;5071849;28;19912;-45